sensor_id;sensor_type;location;lat;lon;timestamp;pressure;altitude;pressure_sealevel;temperature;humidity
55517;BME280;41724;51.176;-0.708;2022-12-31T00:01:15;99444.24;;;9.09;97.32
55517;BME280;41724;51.176;-0.708;2022-12-31T00:03:43;99439.90;;;8.96;96.12
55517;BME280;41724;51.176;-0.708;2022-12-31T00:06:13;99438.09;;;9.75;93.17
55517;BME280;41724;51.176;-0.708;2022-12-31T00:08:43;99449.82;;;10.20;89.83
55517;BME280;41724;51.176;-0.708;2022-12-31T00:11:11;99453.89;;;9.43;92.98
55517;BME280;41724;51.176;-0.708;2022-12-31T00:13:39;99458.02;;;10.11;90.99
55517;BME280;41724;51.176;-0.708;2022-12-31T00:16:08;99465.25;;;9.78;90.43
55517;BME280;41724;51.176;-0.708;2022-12-31T00:18:35;99454.54;;;9.18;91.92
55517;BME280;41724;51.176;-0.708;2022-12-31T00:21:05;99454.45;;;9.85;89.69
55517;BME280;41724;51.176;-0.708;2022-12-31T00:23:33;99459.27;;;10.17;88.56
55517;BME280;41724;51.176;-0.708;2022-12-31T00:26:03;99451.20;;;9.96;90.14
55517;BME280;41724;51.176;-0.708;2022-12-31T00:28:30;99461.54;;;9.40;91.74
55517;BME280;41724;51.176;-0.708;2022-12-31T00:31:04;99474.39;;;9.97;88.76
55517;BME280;41724;51.176;-0.708;2022-12-31T00:33:32;99473.18;;;8.75;91.86
55517;BME280;41724;51.176;-0.708;2022-12-31T00:36:10;99469.14;;;9.03;90.13
55517;BME280;41724;51.176;-0.708;2022-12-31T00:38:41;99466.45;;;8.87;90.12
55517;BME280;41724;51.176;-0.708;2022-12-31T00:41:08;99459.13;;;9.77;87.05
55517;BME280;41724;51.176;-0.708;2022-12-31T00:43:35;99472.44;;;9.82;84.95
55517;BME280;41724;51.176;-0.708;2022-12-31T00:46:04;99461.37;;;10.07;82.79
55517;BME280;41724;51.176;-0.708;2022-12-31T00:48:33;99461.13;;;10.02;82.17
55517;BME280;41724;51.176;-0.708;2022-12-31T00:51:02;99462.83;;;10.19;81.42
55517;BME280;41724;51.176;-0.708;2022-12-31T00:53:29;99478.92;;;10.12;82.56
55517;BME280;41724;51.176;-0.708;2022-12-31T00:55:59;99458.49;;;9.12;85.26
55517;BME280;41724;51.176;-0.708;2022-12-31T00:58:26;99461.77;;;8.85;87.93
55517;BME280;41724;51.176;-0.708;2022-12-31T01:00:53;99438.58;;;9.29;86.32
55517;BME280;41724;51.176;-0.708;2022-12-31T01:03:21;99435.56;;;9.43;84.92
55517;BME280;41724;51.176;-0.708;2022-12-31T01:05:48;99419.94;;;10.30;82.24
55517;BME280;41724;51.176;-0.708;2022-12-31T01:08:15;99402.80;;;10.63;80.38
55517;BME280;41724;51.176;-0.708;2022-12-31T01:10:48;99406.62;;;9.60;83.23
55517;BME280;41724;51.176;-0.708;2022-12-31T01:13:15;99418.56;;;10.03;86.09
55517;BME280;41724;51.176;-0.708;2022-12-31T01:15:42;99440.48;;;10.42;81.80
55517;BME280;41724;51.176;-0.708;2022-12-31T01:18:10;99459.07;;;10.19;82.05
55517;BME280;41724;51.176;-0.708;2022-12-31T01:20:39;99463.49;;;9.57;83.18
55517;BME280;41724;51.176;-0.708;2022-12-31T01:23:08;99452.79;;;9.50;85.62
55517;BME280;41724;51.176;-0.708;2022-12-31T01:25:35;99439.35;;;10.15;82.17
55517;BME280;41724;51.176;-0.708;2022-12-31T01:28:03;99439.74;;;10.51;82.27
55517;BME280;41724;51.176;-0.708;2022-12-31T01:30:31;99422.72;;;10.83;80.03
55517;BME280;41724;51.176;-0.708;2022-12-31T01:32:58;99423.26;;;9.60;84.31
55517;BME280;41724;51.176;-0.708;2022-12-31T01:35:25;99423.97;;;9.12;86.03
55517;BME280;41724;51.176;-0.708;2022-12-31T01:37:52;99433.28;;;9.03;88.41
55517;BME280;41724;51.176;-0.708;2022-12-31T01:40:20;99428.61;;;9.11;90.04
55517;BME280;41724;51.176;-0.708;2022-12-31T01:42:57;99419.39;;;9.28;89.65
55517;BME280;41724;51.176;-0.708;2022-12-31T01:45:24;99415.01;;;9.60;87.12
55517;BME280;41724;51.176;-0.708;2022-12-31T01:47:54;99406.52;;;10.13;86.03
55517;BME280;41724;51.176;-0.708;2022-12-31T01:50:24;99402.00;;;10.60;82.59
55517;BME280;41724;51.176;-0.708;2022-12-31T01:52:57;99406.52;;;10.15;83.60
55517;BME280;41724;51.176;-0.708;2022-12-31T01:55:29;99401.39;;;9.70;87.60
55517;BME280;41724;51.176;-0.708;2022-12-31T01:58:05;99401.27;;;10.53;83.82
55517;BME280;41724;51.176;-0.708;2022-12-31T02:00:35;99400.68;;;10.34;85.00
55517;BME280;41724;51.176;-0.708;2022-12-31T02:03:04;99405.30;;;10.20;84.98
55517;BME280;41724;51.176;-0.708;2022-12-31T02:05:37;99409.86;;;9.74;86.90
55517;BME280;41724;51.176;-0.708;2022-12-31T02:08:05;99412.58;;;10.09;87.20
55517;BME280;41724;51.176;-0.708;2022-12-31T02:10:34;99414.38;;;10.25;85.04
55517;BME280;41724;51.176;-0.708;2022-12-31T02:13:01;99418.68;;;9.64;87.41
55517;BME280;41724;51.176;-0.708;2022-12-31T02:15:37;99413.81;;;9.34;89.73
55517;BME280;41724;51.176;-0.708;2022-12-31T02:18:13;99411.10;;;10.54;84.57
55517;BME280;41724;51.176;-0.708;2022-12-31T02:21:17;99408.61;;;9.13;91.87
55517;BME280;41724;51.176;-0.708;2022-12-31T02:24:06;99423.18;;;10.22;88.20
55517;BME280;41724;51.176;-0.708;2022-12-31T02:27:02;99421.53;;;9.88;89.55
55517;BME280;41724;51.176;-0.708;2022-12-31T02:30:01;99445.88;;;9.55;91.27
55517;BME280;41724;51.176;-0.708;2022-12-31T02:32:45;99429.38;;;9.67;90.97
55517;BME280;41724;51.176;-0.708;2022-12-31T02:35:19;99421.92;;;8.82;94.64
55517;BME280;41724;51.176;-0.708;2022-12-31T02:37:50;99444.23;;;8.77;94.84
55517;BME280;41724;51.176;-0.708;2022-12-31T02:40:21;99454.29;;;9.71;90.81
55517;BME280;41724;51.176;-0.708;2022-12-31T02:42:48;99453.30;;;8.87;96.58
55517;BME280;41724;51.176;-0.708;2022-12-31T02:45:18;99457.23;;;9.35;95.24
55517;BME280;41724;51.176;-0.708;2022-12-31T02:47:57;99460.81;;;8.87;96.24
55517;BME280;41724;51.176;-0.708;2022-12-31T02:50:35;99461.39;;;9.81;92.43
55517;BME280;41724;51.176;-0.708;2022-12-31T02:53:17;99462.38;;;9.96;92.37
55517;BME280;41724;51.176;-0.708;2022-12-31T02:55:53;99459.38;;;9.21;97.66
55517;BME280;41724;51.176;-0.708;2022-12-31T02:58:28;99450.42;;;8.84;98.03
55517;BME280;41724;51.176;-0.708;2022-12-31T03:00:58;99445.04;;;8.78;99.72
55517;BME280;41724;51.176;-0.708;2022-12-31T03:03:27;99442.03;;;9.94;94.84
55517;BME280;41724;51.176;-0.708;2022-12-31T03:05:54;99434.24;;;10.14;91.88
55517;BME280;41724;51.176;-0.708;2022-12-31T03:08:23;99430.85;;;9.90;92.36
55517;BME280;41724;51.176;-0.708;2022-12-31T03:10:51;99427.18;;;10.09;90.51
55517;BME280;41724;51.176;-0.708;2022-12-31T03:13:18;99414.41;;;10.47;89.89
55517;BME280;41724;51.176;-0.708;2022-12-31T03:15:45;99409.95;;;10.14;91.01
55517;BME280;41724;51.176;-0.708;2022-12-31T03:18:14;99416.34;;;10.33;90.74
55517;BME280;41724;51.176;-0.708;2022-12-31T03:20:43;99419.22;;;11.03;89.90
55517;BME280;41724;51.176;-0.708;2022-12-31T03:23:13;99417.78;;;10.19;91.52
55517;BME280;41724;51.176;-0.708;2022-12-31T03:25:42;99410.77;;;10.52;92.73
55517;BME280;41724;51.176;-0.708;2022-12-31T03:28:13;99407.40;;;9.99;92.76
55517;BME280;41724;51.176;-0.708;2022-12-31T03:30:42;99398.51;;;10.22;95.17
55517;BME280;41724;51.176;-0.708;2022-12-31T03:33:10;99399.19;;;10.14;93.07
55517;BME280;41724;51.176;-0.708;2022-12-31T03:35:39;99400.20;;;9.75;97.03
55517;BME280;41724;51.176;-0.708;2022-12-31T03:38:07;99395.85;;;10.06;94.60
55517;BME280;41724;51.176;-0.708;2022-12-31T03:40:39;99393.46;;;10.05;94.69
55517;BME280;41724;51.176;-0.708;2022-12-31T03:43:07;99378.18;;;9.79;98.10
55517;BME280;41724;51.176;-0.708;2022-12-31T03:45:35;99373.98;;;9.98;96.49
55517;BME280;41724;51.176;-0.708;2022-12-31T03:48:05;99364.32;;;9.83;98.19
55517;BME280;41724;51.176;-0.708;2022-12-31T03:50:32;99368.82;;;10.18;97.33
55517;BME280;41724;51.176;-0.708;2022-12-31T03:53:00;99358.06;;;9.92;100.00
55517;BME280;41724;51.176;-0.708;2022-12-31T03:55:28;99369.16;;;10.13;98.06
55517;BME280;41724;51.176;-0.708;2022-12-31T03:57:55;99372.08;;;10.08;97.18
55517;BME280;41724;51.176;-0.708;2022-12-31T04:00:22;99364.76;;;9.31;100.00
55517;BME280;41724;51.176;-0.708;2022-12-31T04:02:49;99350.04;;;9.34;100.00
55517;BME280;41724;51.176;-0.708;2022-12-31T04:05:17;99360.54;;;9.21;100.00
55517;BME280;41724;51.176;-0.708;2022-12-31T04:07:44;99362.71;;;8.90;100.00
55517;BME280;41724;51.176;-0.708;2022-12-31T04:10:14;99353.84;;;9.54;100.00
55517;BME280;41724;51.176;-0.708;2022-12-31T04:12:42;99351.80;;;9.80;100.00
55517;BME280;41724;51.176;-0.708;2022-12-31T04:15:12;99354.12;;;9.69;100.00
55517;BME280;41724;51.176;-0.708;2022-12-31T04:17:42;99347.15;;;9.67;100.00
55517;BME280;41724;51.176;-0.708;2022-12-31T04:20:09;99350.37;;;9.53;100.00
55517;BME280;41724;51.176;-0.708;2022-12-31T04:22:37;99352.99;;;9.28;100.00
55517;BME280;41724;51.176;-0.708;2022-12-31T04:25:05;99369.97;;;9.49;100.00
55517;BME280;41724;51.176;-0.708;2022-12-31T04:27:33;99360.64;;;9.27;100.00
55517;BME280;41724;51.176;-0.708;2022-12-31T04:30:00;99370.62;;;9.46;100.00
55517;BME280;41724;51.176;-0.708;2022-12-31T04:32:27;99356.47;;;9.72;100.00
55517;BME280;41724;51.176;-0.708;2022-12-31T04:34:54;99369.13;;;10.22;100.00
55517;BME280;41724;51.176;-0.708;2022-12-31T04:37:21;99363.83;;;9.74;100.00
55517;BME280;41724;51.176;-0.708;2022-12-31T04:39:48;99386.88;;;10.06;100.00
55517;BME280;41724;51.176;-0.708;2022-12-31T04:42:15;99372.55;;;9.55;100.00
55517;BME280;41724;51.176;-0.708;2022-12-31T04:44:42;99369.94;;;9.96;100.00
55517;BME280;41724;51.176;-0.708;2022-12-31T04:47:09;99364.30;;;9.89;100.00
55517;BME280;41724;51.176;-0.708;2022-12-31T04:49:36;99382.05;;;9.81;100.00
55517;BME280;41724;51.176;-0.708;2022-12-31T04:52:03;99383.98;;;9.85;100.00
55517;BME280;41724;51.176;-0.708;2022-12-31T04:54:30;99373.45;;;10.27;100.00
55517;BME280;41724;51.176;-0.708;2022-12-31T04:56:57;99375.53;;;10.35;100.00
55517;BME280;41724;51.176;-0.708;2022-12-31T04:59:23;99375.97;;;10.29;100.00
55517;BME280;41724;51.176;-0.708;2022-12-31T05:01:50;99373.67;;;10.35;100.00
55517;BME280;41724;51.176;-0.708;2022-12-31T05:04:17;99371.74;;;10.15;100.00
55517;BME280;41724;51.176;-0.708;2022-12-31T05:06:44;99367.55;;;10.15;100.00
55517;BME280;41724;51.176;-0.708;2022-12-31T05:09:11;99358.81;;;10.14;100.00
55517;BME280;41724;51.176;-0.708;2022-12-31T05:11:38;99362.32;;;9.78;100.00
55517;BME280;41724;51.176;-0.708;2022-12-31T05:14:05;99361.37;;;9.92;100.00
55517;BME280;41724;51.176;-0.708;2022-12-31T05:16:32;99381.11;;;9.75;100.00
55517;BME280;41724;51.176;-0.708;2022-12-31T05:18:59;99392.84;;;9.89;100.00
55517;BME280;41724;51.176;-0.708;2022-12-31T05:21:26;99379.63;;;9.54;100.00
55517;BME280;41724;51.176;-0.708;2022-12-31T05:23:53;99377.22;;;10.07;100.00
55517;BME280;41724;51.176;-0.708;2022-12-31T05:26:20;99375.72;;;10.14;100.00
55517;BME280;41724;51.176;-0.708;2022-12-31T05:28:47;99418.72;;;9.97;100.00
55517;BME280;41724;51.176;-0.708;2022-12-31T05:31:14;99353.21;;;10.01;100.00
55517;BME280;41724;51.176;-0.708;2022-12-31T05:33:41;99375.67;;;10.01;100.00
55517;BME280;41724;51.176;-0.708;2022-12-31T05:36:08;99374.76;;;9.81;100.00
55517;BME280;41724;51.176;-0.708;2022-12-31T05:38:36;99409.05;;;9.97;100.00
55517;BME280;41724;51.176;-0.708;2022-12-31T05:41:05;99388.80;;;10.29;100.00
55517;BME280;41724;51.176;-0.708;2022-12-31T05:43:33;99422.93;;;10.13;100.00
55517;BME280;41724;51.176;-0.708;2022-12-31T05:46:01;99419.47;;;10.46;100.00
55517;BME280;41724;51.176;-0.708;2022-12-31T05:48:29;99403.70;;;10.22;100.00
55517;BME280;41724;51.176;-0.708;2022-12-31T05:50:57;99391.86;;;10.56;100.00
55517;BME280;41724;51.176;-0.708;2022-12-31T05:53:24;99406.63;;;10.34;100.00
55517;BME280;41724;51.176;-0.708;2022-12-31T05:55:53;99432.65;;;10.17;100.00
55517;BME280;41724;51.176;-0.708;2022-12-31T05:58:21;99430.36;;;10.37;100.00
55517;BME280;41724;51.176;-0.708;2022-12-31T06:00:50;99420.88;;;10.53;100.00
55517;BME280;41724;51.176;-0.708;2022-12-31T06:03:19;99428.96;;;10.07;100.00
55517;BME280;41724;51.176;-0.708;2022-12-31T06:05:46;99432.43;;;10.55;100.00
55517;BME280;41724;51.176;-0.708;2022-12-31T06:08:13;99441.31;;;10.29;100.00
55517;BME280;41724;51.176;-0.708;2022-12-31T06:10:40;99449.47;;;10.87;100.00
55517;BME280;41724;51.176;-0.708;2022-12-31T06:13:07;99458.24;;;10.77;100.00
55517;BME280;41724;51.176;-0.708;2022-12-31T06:15:36;99452.70;;;10.54;100.00
55517;BME280;41724;51.176;-0.708;2022-12-31T06:18:03;99439.38;;;11.05;100.00
55517;BME280;41724;51.176;-0.708;2022-12-31T06:20:30;99446.81;;;11.14;99.99
55517;BME280;41724;51.176;-0.708;2022-12-31T06:22:57;99443.22;;;10.96;100.00
55517;BME280;41724;51.176;-0.708;2022-12-31T06:25:24;99444.18;;;10.51;100.00
55517;BME280;41724;51.176;-0.708;2022-12-31T06:27:52;99454.20;;;10.63;100.00
55517;BME280;41724;51.176;-0.708;2022-12-31T06:30:18;99451.37;;;10.86;100.00
55517;BME280;41724;51.176;-0.708;2022-12-31T06:32:45;99459.52;;;10.29;100.00
55517;BME280;41724;51.176;-0.708;2022-12-31T06:35:13;99455.29;;;10.14;100.00
55517;BME280;41724;51.176;-0.708;2022-12-31T06:37:39;99476.51;;;10.41;100.00
55517;BME280;41724;51.176;-0.708;2022-12-31T06:40:07;99464.65;;;10.75;100.00
55517;BME280;41724;51.176;-0.708;2022-12-31T06:42:35;99474.15;;;10.23;100.00
55517;BME280;41724;51.176;-0.708;2022-12-31T06:45:07;99473.41;;;10.46;100.00
55517;BME280;41724;51.176;-0.708;2022-12-31T06:47:34;99475.00;;;9.98;100.00
55517;BME280;41724;51.176;-0.708;2022-12-31T06:50:01;99469.39;;;10.68;100.00
55517;BME280;41724;51.176;-0.708;2022-12-31T06:52:29;99515.16;;;10.00;100.00
55517;BME280;41724;51.176;-0.708;2022-12-31T06:54:57;99487.08;;;9.85;100.00
55517;BME280;41724;51.176;-0.708;2022-12-31T06:57:24;99493.99;;;9.74;100.00
55517;BME280;41724;51.176;-0.708;2022-12-31T06:59:52;99504.53;;;9.83;100.00
55517;BME280;41724;51.176;-0.708;2022-12-31T07:02:29;99499.42;;;9.91;100.00
55517;BME280;41724;51.176;-0.708;2022-12-31T07:05:09;99494.71;;;9.47;100.00
55517;BME280;41724;51.176;-0.708;2022-12-31T07:07:48;99482.97;;;9.69;100.00
55517;BME280;41724;51.176;-0.708;2022-12-31T07:10:27;99491.79;;;9.69;100.00
55517;BME280;41724;51.176;-0.708;2022-12-31T07:13:10;99485.15;;;10.10;100.00
55517;BME280;41724;51.176;-0.708;2022-12-31T07:15:54;99480.69;;;10.23;100.00
55517;BME280;41724;51.176;-0.708;2022-12-31T07:18:32;99483.12;;;9.93;100.00
55517;BME280;41724;51.176;-0.708;2022-12-31T07:21:03;99492.51;;;9.86;100.00
55517;BME280;41724;51.176;-0.708;2022-12-31T07:23:35;99513.78;;;9.86;100.00
55517;BME280;41724;51.176;-0.708;2022-12-31T07:26:06;99494.14;;;9.41;100.00
55517;BME280;41724;51.176;-0.708;2022-12-31T07:28:44;99512.46;;;9.29;100.00
55517;BME280;41724;51.176;-0.708;2022-12-31T07:31:23;99506.91;;;9.46;100.00
55517;BME280;41724;51.176;-0.708;2022-12-31T07:33:58;99537.52;;;9.41;100.00
55517;BME280;41724;51.176;-0.708;2022-12-31T07:36:38;99516.03;;;9.81;100.00
55517;BME280;41724;51.176;-0.708;2022-12-31T07:39:15;99539.18;;;10.06;100.00
55517;BME280;41724;51.176;-0.708;2022-12-31T07:41:51;99519.41;;;9.66;100.00
55517;BME280;41724;51.176;-0.708;2022-12-31T07:44:31;99531.07;;;10.14;100.00
55517;BME280;41724;51.176;-0.708;2022-12-31T07:47:03;99524.99;;;9.88;100.00
55517;BME280;41724;51.176;-0.708;2022-12-31T07:49:37;99537.26;;;10.26;100.00
55517;BME280;41724;51.176;-0.708;2022-12-31T07:52:08;99542.94;;;10.44;100.00
55517;BME280;41724;51.176;-0.708;2022-12-31T07:54:35;99556.49;;;10.48;100.00
55517;BME280;41724;51.176;-0.708;2022-12-31T07:57:03;99557.14;;;10.10;100.00
55517;BME280;41724;51.176;-0.708;2022-12-31T07:59:42;99561.14;;;10.44;100.00
55517;BME280;41724;51.176;-0.708;2022-12-31T08:02:22;99586.17;;;9.89;100.00
55517;BME280;41724;51.176;-0.708;2022-12-31T08:04:55;99567.34;;;9.81;100.00
55517;BME280;41724;51.176;-0.708;2022-12-31T08:07:33;99581.18;;;10.35;100.00
55517;BME280;41724;51.176;-0.708;2022-12-31T08:10:06;99579.50;;;10.35;100.00
55517;BME280;41724;51.176;-0.708;2022-12-31T08:12:38;99581.60;;;10.42;100.00
55517;BME280;41724;51.176;-0.708;2022-12-31T08:15:12;99572.00;;;10.45;100.00
55517;BME280;41724;51.176;-0.708;2022-12-31T08:17:40;99588.88;;;10.05;100.00
55517;BME280;41724;51.176;-0.708;2022-12-31T08:20:12;99594.57;;;10.05;100.00
55517;BME280;41724;51.176;-0.708;2022-12-31T08:23:05;99603.60;;;10.27;100.00
55517;BME280;41724;51.176;-0.708;2022-12-31T08:25:44;99600.91;;;10.60;100.00
55517;BME280;41724;51.176;-0.708;2022-12-31T08:28:31;99600.38;;;10.28;100.00
55517;BME280;41724;51.176;-0.708;2022-12-31T08:31:06;99614.20;;;10.11;100.00
55517;BME280;41724;51.176;-0.708;2022-12-31T08:33:40;99615.89;;;10.52;100.00
55517;BME280;41724;51.176;-0.708;2022-12-31T08:36:20;99642.20;;;10.09;100.00
55517;BME280;41724;51.176;-0.708;2022-12-31T08:38:55;99641.53;;;10.39;100.00
55517;BME280;41724;51.176;-0.708;2022-12-31T08:41:31;99655.90;;;9.95;100.00
55517;BME280;41724;51.176;-0.708;2022-12-31T08:44:10;99638.79;;;10.06;100.00
55517;BME280;41724;51.176;-0.708;2022-12-31T08:46:47;99649.10;;;10.26;100.00
55517;BME280;41724;51.176;-0.708;2022-12-31T08:49:18;99654.80;;;10.12;100.00
55517;BME280;41724;51.176;-0.708;2022-12-31T08:51:47;99648.36;;;9.68;100.00
55517;BME280;41724;51.176;-0.708;2022-12-31T08:54:14;99646.81;;;9.94;100.00
55517;BME280;41724;51.176;-0.708;2022-12-31T08:56:45;99655.96;;;10.11;100.00
55517;BME280;41724;51.176;-0.708;2022-12-31T08:59:28;99654.23;;;10.88;100.00
55517;BME280;41724;51.176;-0.708;2022-12-31T09:02:18;99659.60;;;10.38;100.00
55517;BME280;41724;51.176;-0.708;2022-12-31T09:05:00;99649.28;;;10.35;100.00
55517;BME280;41724;51.176;-0.708;2022-12-31T09:07:35;99647.61;;;10.21;100.00
55517;BME280;41724;51.176;-0.708;2022-12-31T09:10:15;99647.91;;;10.50;100.00
55517;BME280;41724;51.176;-0.708;2022-12-31T09:12:52;99646.71;;;10.47;100.00
55517;BME280;41724;51.176;-0.708;2022-12-31T09:15:28;99656.44;;;10.12;100.00
55517;BME280;41724;51.176;-0.708;2022-12-31T09:17:57;99650.82;;;10.49;100.00
55517;BME280;41724;51.176;-0.708;2022-12-31T09:20:26;99658.44;;;10.59;100.00
55517;BME280;41724;51.176;-0.708;2022-12-31T09:22:55;99664.96;;;10.06;100.00
55517;BME280;41724;51.176;-0.708;2022-12-31T09:25:25;99660.05;;;10.15;100.00
55517;BME280;41724;51.176;-0.708;2022-12-31T09:28:07;99658.94;;;10.24;100.00
55517;BME280;41724;51.176;-0.708;2022-12-31T09:30:44;99662.62;;;10.79;100.00
55517;BME280;41724;51.176;-0.708;2022-12-31T09:33:25;99675.29;;;10.45;100.00
55517;BME280;41724;51.176;-0.708;2022-12-31T09:36:00;99667.81;;;9.88;100.00
55517;BME280;41724;51.176;-0.708;2022-12-31T09:38:36;99665.07;;;10.40;100.00
55517;BME280;41724;51.176;-0.708;2022-12-31T09:41:13;99664.79;;;10.51;100.00
55517;BME280;41724;51.176;-0.708;2022-12-31T09:46:17;99654.16;;;11.11;100.00
55517;BME280;41724;51.176;-0.708;2022-12-31T09:49:12;99645.35;;;11.13;100.00
55517;BME280;41724;51.176;-0.708;2022-12-31T09:51:51;99653.92;;;11.15;100.00
55517;BME280;41724;51.176;-0.708;2022-12-31T09:54:33;99644.55;;;11.59;100.00
55517;BME280;41724;51.176;-0.708;2022-12-31T09:57:38;99641.95;;;11.10;100.00
55517;BME280;41724;51.176;-0.708;2022-12-31T10:00:14;99645.47;;;10.99;100.00
55517;BME280;41724;51.176;-0.708;2022-12-31T10:02:57;99648.39;;;10.38;100.00
55517;BME280;41724;51.176;-0.708;2022-12-31T10:05:42;99643.97;;;11.03;100.00
55517;BME280;41724;51.176;-0.708;2022-12-31T10:08:31;99639.35;;;10.29;100.00
55517;BME280;41724;51.176;-0.708;2022-12-31T10:11:15;99648.92;;;11.44;100.00
55517;BME280;41724;51.176;-0.708;2022-12-31T10:13:58;99650.52;;;11.02;100.00
55517;BME280;41724;51.176;-0.708;2022-12-31T10:16:43;99656.93;;;11.50;100.00
55517;BME280;41724;51.176;-0.708;2022-12-31T10:19:46;99646.87;;;11.55;100.00
55517;BME280;41724;51.176;-0.708;2022-12-31T10:22:39;99646.46;;;11.01;100.00
55517;BME280;41724;51.176;-0.708;2022-12-31T10:26:28;99647.55;;;11.25;100.00
55517;BME280;41724;51.176;-0.708;2022-12-31T10:29:12;99655.65;;;10.89;100.00
55517;BME280;41724;51.176;-0.708;2022-12-31T10:31:53;99656.31;;;11.12;100.00
55517;BME280;41724;51.176;-0.708;2022-12-31T10:34:30;99660.50;;;11.14;100.00
55517;BME280;41724;51.176;-0.708;2022-12-31T10:37:07;99667.24;;;10.55;100.00
55517;BME280;41724;51.176;-0.708;2022-12-31T10:39:44;99649.06;;;10.32;100.00
55517;BME280;41724;51.176;-0.708;2022-12-31T10:45:03;99645.53;;;12.13;100.00
55517;BME280;41724;51.176;-0.708;2022-12-31T10:50:26;99646.42;;;11.34;100.00
55517;BME280;41724;51.176;-0.708;2022-12-31T10:53:27;99651.28;;;11.04;100.00
55517;BME280;41724;51.176;-0.708;2022-12-31T10:56:49;99660.84;;;11.30;100.00
55517;BME280;41724;51.176;-0.708;2022-12-31T10:59:41;99656.51;;;10.84;100.00
55517;BME280;41724;51.176;-0.708;2022-12-31T11:02:43;99650.27;;;9.81;100.00
55517;BME280;41724;51.176;-0.708;2022-12-31T11:07:46;99648.43;;;11.34;100.00
55517;BME280;41724;51.176;-0.708;2022-12-31T11:10:31;99657.97;;;10.80;100.00
55517;BME280;41724;51.176;-0.708;2022-12-31T11:13:34;99659.66;;;10.31;100.00
55517;BME280;41724;51.176;-0.708;2022-12-31T11:16:31;99650.61;;;10.08;100.00
55517;BME280;41724;51.176;-0.708;2022-12-31T11:19:08;99642.86;;;10.14;100.00
55517;BME280;41724;51.176;-0.708;2022-12-31T11:21:50;99632.38;;;10.39;100.00
55517;BME280;41724;51.176;-0.708;2022-12-31T11:24:33;99628.05;;;10.11;100.00
55517;BME280;41724;51.176;-0.708;2022-12-31T11:27:14;99620.96;;;10.22;100.00
55517;BME280;41724;51.176;-0.708;2022-12-31T11:30:00;99619.24;;;11.35;100.00
55517;BME280;41724;51.176;-0.708;2022-12-31T11:32:40;99617.98;;;10.77;100.00
55517;BME280;41724;51.176;-0.708;2022-12-31T11:35:22;99613.12;;;11.23;100.00
55517;BME280;41724;51.176;-0.708;2022-12-31T11:37:54;99614.82;;;10.32;100.00
55517;BME280;41724;51.176;-0.708;2022-12-31T11:40:36;99606.24;;;10.28;100.00
55517;BME280;41724;51.176;-0.708;2022-12-31T11:43:17;99600.24;;;10.59;100.00
55517;BME280;41724;51.176;-0.708;2022-12-31T11:46:33;99601.53;;;10.68;100.00
55517;BME280;41724;51.176;-0.708;2022-12-31T11:49:14;99591.54;;;10.64;100.00
55517;BME280;41724;51.176;-0.708;2022-12-31T11:52:00;99610.32;;;9.62;100.00
55517;BME280;41724;51.176;-0.708;2022-12-31T11:54:48;99597.34;;;10.05;100.00
55517;BME280;41724;51.176;-0.708;2022-12-31T11:57:25;99589.89;;;10.32;100.00
55517;BME280;41724;51.176;-0.708;2022-12-31T11:59:56;99595.50;;;10.40;100.00
55517;BME280;41724;51.176;-0.708;2022-12-31T12:02:26;99609.25;;;10.31;100.00
55517;BME280;41724;51.176;-0.708;2022-12-31T12:04:56;99588.43;;;10.45;100.00
55517;BME280;41724;51.176;-0.708;2022-12-31T12:07:24;99599.40;;;10.35;100.00
55517;BME280;41724;51.176;-0.708;2022-12-31T12:09:54;99571.90;;;10.56;100.00
55517;BME280;41724;51.176;-0.708;2022-12-31T12:12:22;99579.78;;;10.34;100.00
55517;BME280;41724;51.176;-0.708;2022-12-31T12:14:52;99568.62;;;10.44;100.00
55517;BME280;41724;51.176;-0.708;2022-12-31T12:17:26;99569.53;;;10.27;100.00
55517;BME280;41724;51.176;-0.708;2022-12-31T12:19:54;99568.38;;;10.50;100.00
55517;BME280;41724;51.176;-0.708;2022-12-31T12:22:23;99577.73;;;10.27;100.00
55517;BME280;41724;51.176;-0.708;2022-12-31T12:24:53;99572.99;;;10.01;100.00
55517;BME280;41724;51.176;-0.708;2022-12-31T12:27:23;99581.65;;;9.90;100.00
55517;BME280;41724;51.176;-0.708;2022-12-31T12:30:09;99563.88;;;9.52;100.00
55517;BME280;41724;51.176;-0.708;2022-12-31T12:32:36;99560.28;;;9.44;100.00
55517;BME280;41724;51.176;-0.708;2022-12-31T12:35:14;99565.09;;;9.91;100.00
55517;BME280;41724;51.176;-0.708;2022-12-31T12:37:44;99569.42;;;9.87;100.00
55517;BME280;41724;51.176;-0.708;2022-12-31T12:40:20;99584.66;;;9.85;100.00
55517;BME280;41724;51.176;-0.708;2022-12-31T12:42:49;99575.29;;;9.70;100.00
55517;BME280;41724;51.176;-0.708;2022-12-31T12:45:19;99577.28;;;9.82;100.00
55517;BME280;41724;51.176;-0.708;2022-12-31T12:47:49;99577.57;;;9.54;100.00
55517;BME280;41724;51.176;-0.708;2022-12-31T12:50:21;99584.88;;;9.52;100.00
55517;BME280;41724;51.176;-0.708;2022-12-31T12:53:02;99591.47;;;9.15;100.00
55517;BME280;41724;51.176;-0.708;2022-12-31T12:55:37;99569.63;;;9.42;100.00
55517;BME280;41724;51.176;-0.708;2022-12-31T12:58:17;99601.38;;;9.79;100.00
55517;BME280;41724;51.176;-0.708;2022-12-31T13:00:54;99597.36;;;9.97;100.00
55517;BME280;41724;51.176;-0.708;2022-12-31T13:03:43;99580.42;;;9.46;100.00
55517;BME280;41724;51.176;-0.708;2022-12-31T13:06:27;99592.27;;;10.07;100.00
55517;BME280;41724;51.176;-0.708;2022-12-31T13:09:07;99575.57;;;9.69;100.00
55517;BME280;41724;51.176;-0.708;2022-12-31T13:11:43;99568.21;;;9.11;100.00
55517;BME280;41724;51.176;-0.708;2022-12-31T13:14:23;99561.84;;;10.24;100.00
55517;BME280;41724;51.176;-0.708;2022-12-31T13:17:00;99568.99;;;9.48;100.00
55517;BME280;41724;51.176;-0.708;2022-12-31T13:19:35;99565.60;;;9.26;100.00
55517;BME280;41724;51.176;-0.708;2022-12-31T13:22:10;99572.60;;;9.67;100.00
55517;BME280;41724;51.176;-0.708;2022-12-31T13:24:49;99560.71;;;9.85;100.00
55517;BME280;41724;51.176;-0.708;2022-12-31T13:27:25;99539.56;;;10.64;100.00
55517;BME280;41724;51.176;-0.708;2022-12-31T13:29:55;99546.37;;;9.51;100.00
55517;BME280;41724;51.176;-0.708;2022-12-31T13:32:28;99542.63;;;9.43;100.00